< Typhoon 196404 1964 Season Typhoon 196406 >
Typhoon 196405 (BETTY)
General InformationTrack Information on Google Maps || Disaster Info.ResourceGoogle EarthGE AnimationAtom FeedGeoJSON
Detalied Best Track (Time Zone = UTC)
Year Month Day Hour Lat. Long. Pressure (hPa) Wind (kt) Class Image Chart
1964 7 2 00 21.1 133.0 1000 0 2 -- Chart
1964 7 2 06 21.9 132.5 998 0 2 -- Chart
1964 7 2 12 22.3 131.2 996 0 9 -- Chart
1964 7 2 18 22.4 130.0 990 0 9 -- Chart
1964 7 3 00 22.6 128.9 986 0 9 -- Chart
1964 7 3 06 23.1 128.1 985 0 9 -- Chart
1964 7 3 12 23.5 127.2 985 0 9 -- Chart
1964 7 3 18 23.8 126.2 980 0 9 -- Chart
1964 7 4 00 24.3 125.3 975 0 9 -- Chart
1964 7 4 06 24.8 124.8 970 0 9 -- Chart
1964 7 4 12 25.4 124.4 965 0 9 -- Chart
1964 7 4 18 26.0 124.1 960 0 9 -- Chart
1964 7 5 00 26.6 123.9 960 0 9 -- Chart
1964 7 5 06 27.0 123.6 970 0 9 -- Chart
1964 7 5 12 27.6 123.3 980 0 9 -- Chart
1964 7 5 18 28.5 122.0 990 0 9 -- Chart
1964 7 6 00 29.5 122.6 990 0 9 -- Chart
1964 7 6 06 30.5 123.1 990 0 9 -- Chart
1964 7 6 12 32.1 124.0 990 0 9 -- Chart
1964 7 6 18 33.9 124.8 996 0 9 -- Chart
1964 7 7 00 35.7 125.5 1000 0 2 -- Chart
1964 7 7 06 37.4 126.0 1002 0 6 -- Chart
Japan Meteorological Agency Best Track Data | Correction Date : 1989-06-01
< Typhoon 196404 1964 Season Typhoon 196406 >

Help